AirNav   Everest Fuels
 
 747 users online  

59MO Hermann Area Hospital Heliport
Hermann, Missouri, USA

GOING TO HERMANN?


FAA INFORMATION EFFECTIVE 18 JUNE 2020

Location

FAA Identifier: 59MO
Lat/Long: 38-41-35.7100N 091-27-01.1300W
38-41.595167N 091-27.018833W
38.6932528,-91.4503139
(estimated)
Elevation: 610 ft. / 186 m (estimated)
Variation: 03E (1985)
Time zone: UTC -5 (UTC -6 during Standard Time)
Zip code: 65041

Heliport Operations

Heliport use: Private use, MEDICAL.
Activation date: 11/1974
Control tower: no
ARTCC: KANSAS CITY CENTER
FSS: SAINT LOUIS FLIGHT SERVICE STATION
Attendance: CONTINUOUS
Wind indicator: yes
Segmented circle: no
Lights: SS-SR

Nearby radio navigation aids

VOR radial/distance  VOR name  Freq  Var
FTZr265/22.4FORISTELL VORTAC110.8005E
VIHr014/34.5VICHY VOR/DME117.7006E
COUr101/36.6COLUMBIA VOR/DME110.2000E

Heliport Services

Airframe service: NONE
Powerplant service: NONE

Runway Information

Helipad H1

Dimensions: 40 x 40 ft. / 12 x 12 m
Surface: asphalt/concrete
Runway edge lights: FLD
Runway edge markings: RED LANDING PAD W/WHITE CROSS.
Latitude: 38-41.595167N
Longitude: 091-27.018833W
Elevation: 610.0 ft.
Traffic pattern: leftleft

Heliport Ownership and Management from official FAA records

Ownership: Privately-owned
Owner: HERMANN AREA DISTRICT HOSP.
PO BOX 470
HERMANN, MO 65041
Phone 314-486-2191
Manager: DAN MC KINNEY, ADMIN
PO BOX 470
HERMANN, MO 65041
Phone 314-486-2191
ADDITIONAL CONTACT - GREG STEPHAN - MAINTENANCE DIRECTOR 573-486-2191; MAINTENANCE@HADH.ORG

Additional Remarks

A52-H1 30' BLDG SE.
FOR CD CTC MIZZOU APCH AT 417-868-5620/5619.

Instrument Procedures

There are no published instrument procedures at 59MO.

Some nearby airports with instrument procedures:

KFYG - Washington Regional Airport (22 nm E)
KFTT - Elton Hensley Memorial Airport (27 nm W)
KUUV - Sullivan Regional Airport (31 nm SE)
KMYJ - Mexico Memorial Airport (33 nm NW)
KJEF - Jefferson City Memorial Airport (34 nm W)
 
Loc | Ops | Rwys | IFR | FBO | Links
Com | Nav | Svcs | Stats | Notes
Area around 59MO (Hermann Area Hospital Heliport)
 
Road maps at: MapQuest Bing Google
 
Aerial photo
No photo
 
Sectional chart

 
Airport distance calculator
Flying to Hermann Area Hospital Heliport? Find the distance to fly.

From to 59MO

Sunrise and sunset
Times for 04-Jul-2020
 Local
(UTC-5)
 Zulu
(UTC)
Morning civil twilight05:1610:16
Sunrise05:4810:48
Sunset20:3301:33
Evening civil twilight21:0402:04

Current date and time
Zulu (UTC)  05-Jul-2020 01:40:37
Local (UTC-5)  04-Jul-2020 20:40:37
 
METAR
KFYG 
22nm E 
050115Z AUTO 00000KT 10SM FEW055 27/23 A2994 RMK AO2
KMYJ 
33nm NW 
050115Z AUTO 07004KT CLR 26/21 A2996 RMK AO2
KJEF 
33nm W 
050053Z 06005KT 10SM CLR 29/20 A2993 RMK AO2 SLP122 T02940200 $
KCOU 
37nm W 
050054Z 06004KT 10SM CLR 28/22 A2996 RMK AO2 SLP134 T02830222 $
KVIH 
37nm SW 
050053Z AUTO 08003KT 10SM CLR 28/20 A2997 RMK AO2 SLP136 T02830200
KSUS 
38nm E 
050054Z AUTO 06007KT 10SM SCT065 29/19 A2993 RMK AO2 SLP125 T02890194
TAF
KCOU 
37nm W 
041722Z 0418/0518 11006KT P6SM FEW035 SCT060 FM050100 07005KT P6SM SCT250
KSUS 
38nm E 
041722Z 0418/0518 10005KT P6SM BKN060 BKN250 FM050100 VRB04KT P6SM FEW200 TEMPO 0510/0512 5SM BR
NOTAMs
Click for the latest NOTAMs
NOTAMs are issued by the DoD/FAA and will open in a separate window not controlled by AirNav.

 

 
 

Would you like to see your business listed on this page?

 If your business provides an interesting product or service to pilots, flight crews, aircraft, or users of the Hermann Area Hospital Heliport, you should consider listing it here.  To start the listing process, click on the button below
 
Add a business
 

Other Pages about Hermann Area Hospital Heliport

Update a link
 
Copyright © AirNav, LLC. All rights reserved. Privacy Policy  Contact